sensor_id;sensor_type;location;lat;lon;timestamp;pressure;altitude;pressure_sealevel;temperature;humidity
29315;BME280;16320;53.954;9.506;2024-02-26T00:00:07;100233.66;;;2.79;100.00
29315;BME280;16320;53.954;9.506;2024-02-26T00:02:37;100228.72;;;2.71;100.00
29315;BME280;16320;53.954;9.506;2024-02-26T00:05:07;100234.94;;;2.64;100.00
29315;BME280;16320;53.954;9.506;2024-02-26T00:07:36;100231.59;;;2.61;100.00
29315;BME280;16320;53.954;9.506;2024-02-26T00:10:09;100230.75;;;2.60;100.00
29315;BME280;16320;53.954;9.506;2024-02-26T00:12:38;100228.16;;;2.60;100.00
29315;BME280;16320;53.954;9.506;2024-02-26T00:15:08;100230.97;;;2.51;100.00
29315;BME280;16320;53.954;9.506;2024-02-26T00:17:37;100220.19;;;2.33;100.00
29315;BME280;16320;53.954;9.506;2024-02-26T00:20:06;100219.84;;;2.47;100.00
29315;BME280;16320;53.954;9.506;2024-02-26T00:22:37;100222.47;;;2.46;100.00
29315;BME280;16320;53.954;9.506;2024-02-26T00:25:06;100219.16;;;2.41;100.00
29315;BME280;16320;53.954;9.506;2024-02-26T00:27:34;100219.38;;;2.31;100.00
29315;BME280;16320;53.954;9.506;2024-02-26T00:30:03;100217.03;;;2.22;100.00
29315;BME280;16320;53.954;9.506;2024-02-26T00:32:31;100221.19;;;2.29;100.00
29315;BME280;16320;53.954;9.506;2024-02-26T00:34:59;100225.22;;;2.40;100.00
29315;BME280;16320;53.954;9.506;2024-02-26T00:37:30;100217.53;;;2.36;100.00
29315;BME280;16320;53.954;9.506;2024-02-26T00:39:58;100221.19;;;2.29;100.00
29315;BME280;16320;53.954;9.506;2024-02-26T00:42:27;100213.13;;;2.06;100.00
29315;BME280;16320;53.954;9.506;2024-02-26T00:44:55;100210.53;;;1.70;100.00
29315;BME280;16320;53.954;9.506;2024-02-26T00:47:23;100210.50;;;1.71;100.00
29315;BME280;16320;53.954;9.506;2024-02-26T00:49:52;100218.03;;;1.82;100.00
29315;BME280;16320;53.954;9.506;2024-02-26T00:52:21;100211.78;;;1.89;100.00
29315;BME280;16320;53.954;9.506;2024-02-26T00:54:49;100206.72;;;1.85;100.00
29315;BME280;16320;53.954;9.506;2024-02-26T00:57:18;100211.88;;;1.86;100.00
29315;BME280;16320;53.954;9.506;2024-02-26T00:59:47;100204.84;;;1.91;100.00
29315;BME280;16320;53.954;9.506;2024-02-26T01:02:18;100203.81;;;1.98;100.00
29315;BME280;16320;53.954;9.506;2024-02-26T01:04:47;100211.66;;;1.95;100.00
29315;BME280;16320;53.954;9.506;2024-02-26T01:07:16;100210.78;;;1.95;100.00
29315;BME280;16320;53.954;9.506;2024-02-26T01:09:44;100218.44;;;1.99;100.00
29315;BME280;16320;53.954;9.506;2024-02-26T01:12:12;100220.25;;;1.96;100.00
29315;BME280;16320;53.954;9.506;2024-02-26T01:14:42;100218.59;;;1.93;100.00
29315;BME280;16320;53.954;9.506;2024-02-26T01:17:12;100222.16;;;1.89;100.00
29315;BME280;16320;53.954;9.506;2024-02-26T01:19:41;100213.56;;;1.87;100.00
29315;BME280;16320;53.954;9.506;2024-02-26T01:22:09;100225.63;;;1.88;100.00
29315;BME280;16320;53.954;9.506;2024-02-26T01:24:38;100223.94;;;1.87;100.00
29315;BME280;16320;53.954;9.506;2024-02-26T01:27:08;100223.03;;;1.88;100.00
29315;BME280;16320;53.954;9.506;2024-02-26T01:29:36;100224.84;;;1.85;100.00
29315;BME280;16320;53.954;9.506;2024-02-26T01:32:05;100224.00;;;1.84;100.00
29315;BME280;16320;53.954;9.506;2024-02-26T01:34:33;100227.47;;;1.83;100.00
29315;BME280;16320;53.954;9.506;2024-02-26T01:37:04;100219.66;;;1.85;100.00
29315;BME280;16320;53.954;9.506;2024-02-26T01:39:32;100221.38;;;1.86;100.00
29315;BME280;16320;53.954;9.506;2024-02-26T01:42:01;100223.94;;;1.87;100.00
29315;BME280;16320;53.954;9.506;2024-02-26T01:44:29;100224.75;;;1.89;100.00
29315;BME280;16320;53.954;9.506;2024-02-26T01:46:58;100222.97;;;1.91;100.00
29315;BME280;16320;53.954;9.506;2024-02-26T01:49:28;100228.06;;;1.94;100.00
29315;BME280;16320;53.954;9.506;2024-02-26T01:51:58;100230.72;;;1.91;100.00
29315;BME280;16320;53.954;9.506;2024-02-26T01:54:26;100229.03;;;1.90;100.00
29315;BME280;16320;53.954;9.506;2024-02-26T01:56:55;100226.47;;;1.90;100.00
29315;BME280;16320;53.954;9.506;2024-02-26T01:59:24;100230.00;;;1.86;100.00
29315;BME280;16320;53.954;9.506;2024-02-26T02:01:57;100230.16;;;1.78;100.00
29315;BME280;16320;53.954;9.506;2024-02-26T02:04:26;100232.94;;;1.71;100.00
29315;BME280;16320;53.954;9.506;2024-02-26T02:06:54;100243.44;;;1.64;100.00
29315;BME280;16320;53.954;9.506;2024-02-26T02:09:24;100253.94;;;1.58;100.00
29315;BME280;16320;53.954;9.506;2024-02-26T02:11:53;100259.16;;;1.55;100.00
29315;BME280;16320;53.954;9.506;2024-02-26T02:14:22;100261.53;;;1.66;100.00
29315;BME280;16320;53.954;9.506;2024-02-26T02:16:50;100264.94;;;1.68;100.00
29315;BME280;16320;53.954;9.506;2024-02-26T02:19:18;100265.84;;;1.65;100.00
29315;BME280;16320;53.954;9.506;2024-02-26T02:21:47;100255.34;;;1.72;100.00
29315;BME280;16320;53.954;9.506;2024-02-26T02:24:15;100259.59;;;1.76;100.00
29315;BME280;16320;53.954;9.506;2024-02-26T02:26:44;100259.56;;;1.77;100.00
29315;BME280;16320;53.954;9.506;2024-02-26T02:29:14;100252.63;;;1.78;100.00
29315;BME280;16320;53.954;9.506;2024-02-26T02:31:43;100248.31;;;1.77;100.00
29315;BME280;16320;53.954;9.506;2024-02-26T02:34:11;100245.66;;;1.80;100.00
29315;BME280;16320;53.954;9.506;2024-02-26T02:36:52;100256.94;;;1.79;100.00
29315;BME280;16320;53.954;9.506;2024-02-26T02:39:21;100257.78;;;1.79;100.00
29315;BME280;16320;53.954;9.506;2024-02-26T02:41:49;100256.09;;;1.77;100.00
29315;BME280;16320;53.954;9.506;2024-02-26T02:44:21;100260.41;;;1.78;100.00
29315;BME280;16320;53.954;9.506;2024-02-26T02:46:49;100262.09;;;1.79;100.00
29315;BME280;16320;53.954;9.506;2024-02-26T02:49:22;100252.63;;;1.78;100.00
29315;BME280;16320;53.954;9.506;2024-02-26T02:51:51;100262.19;;;1.76;100.00
29315;BME280;16320;53.954;9.506;2024-02-26T02:54:24;100263.84;;;1.77;100.00
29315;BME280;16320;53.954;9.506;2024-02-26T02:56:52;100269.88;;;1.79;100.00
29315;BME280;16320;53.954;9.506;2024-02-26T02:59:21;100266.44;;;1.77;100.00
29315;BME280;16320;53.954;9.506;2024-02-26T03:01:49;100273.34;;;1.78;100.00
29315;BME280;16320;53.954;9.506;2024-02-26T03:04:18;100268.13;;;1.79;100.00
29315;BME280;16320;53.954;9.506;2024-02-26T03:06:46;100265.63;;;1.75;100.00
29315;BME280;16320;53.954;9.506;2024-02-26T03:09:15;100279.56;;;1.71;100.00
29315;BME280;16320;53.954;9.506;2024-02-26T03:11:44;100269.34;;;1.64;100.00
29315;BME280;16320;53.954;9.506;2024-02-26T03:14:13;100277.19;;;1.60;100.00
29315;BME280;16320;53.954;9.506;2024-02-26T03:16:40;100265.31;;;1.51;100.00
29315;BME280;16320;53.954;9.506;2024-02-26T03:19:08;100270.44;;;1.53;100.00
29315;BME280;16320;53.954;9.506;2024-02-26T03:21:38;100273.78;;;1.58;100.00
29315;BME280;16320;53.954;9.506;2024-02-26T03:24:07;100279.91;;;1.54;100.00
29315;BME280;16320;53.954;9.506;2024-02-26T03:26:38;100276.41;;;1.56;100.00
29315;BME280;16320;53.954;9.506;2024-02-26T03:29:07;100276.34;;;1.59;100.00
29315;BME280;16320;53.954;9.506;2024-02-26T03:31:36;100276.34;;;1.59;100.00
29315;BME280;16320;53.954;9.506;2024-02-26T03:34:04;100284.88;;;1.64;100.00
29315;BME280;16320;53.954;9.506;2024-02-26T03:36:32;100286.63;;;1.62;100.00
29315;BME280;16320;53.954;9.506;2024-02-26T03:39:02;100281.53;;;1.59;100.00
29315;BME280;16320;53.954;9.506;2024-02-26T03:41:34;100288.59;;;1.51;100.00
29315;BME280;16320;53.954;9.506;2024-02-26T03:44:04;100293.91;;;1.45;100.00
29315;BME280;16320;53.954;9.506;2024-02-26T03:46:32;100293.06;;;1.43;100.00
29315;BME280;16320;53.954;9.506;2024-02-26T03:49:01;100301.69;;;1.45;100.00
29315;BME280;16320;53.954;9.506;2024-02-26T03:51:31;100306.72;;;1.51;100.00
29315;BME280;16320;53.954;9.506;2024-02-26T03:54:00;100308.34;;;1.55;100.00
29315;BME280;16320;53.954;9.506;2024-02-26T03:56:30;100306.66;;;1.53;100.00
29315;BME280;16320;53.954;9.506;2024-02-26T03:58:59;100309.22;;;1.54;100.00
29315;BME280;16320;53.954;9.506;2024-02-26T04:01:29;100311.06;;;1.49;100.00
29315;BME280;16320;53.954;9.506;2024-02-26T04:03:59;100309.50;;;1.42;100.00
29315;BME280;16320;53.954;9.506;2024-02-26T04:06:28;100316.63;;;1.31;100.00
29315;BME280;16320;53.954;9.506;2024-02-26T04:08:57;100321.84;;;1.27;100.00
29315;BME280;16320;53.954;9.506;2024-02-26T04:11:25;100325.19;;;1.33;100.00
29315;BME280;16320;53.954;9.506;2024-02-26T04:13:54;100323.31;;;1.41;100.00
29315;BME280;16320;53.954;9.506;2024-02-26T04:16:24;100336.09;;;1.49;100.00
29315;BME280;16320;53.954;9.506;2024-02-26T04:18:52;100335.25;;;1.48;100.00
29315;BME280;16320;53.954;9.506;2024-02-26T04:21:22;100343.91;;;1.47;100.00
29315;BME280;16320;53.954;9.506;2024-02-26T04:23:50;100344.78;;;1.44;100.00
29315;BME280;16320;53.954;9.506;2024-02-26T04:26:22;100347.41;;;1.43;100.00
29315;BME280;16320;53.954;9.506;2024-02-26T04:28:50;100354.19;;;1.50;100.00
29315;BME280;16320;53.954;9.506;2024-02-26T04:31:18;100362.72;;;1.55;100.00
29315;BME280;16320;53.954;9.506;2024-02-26T04:33:47;100370.44;;;1.57;100.00
29315;BME280;16320;53.954;9.506;2024-02-26T04:36:18;100367.88;;;1.55;100.00
29315;BME280;16320;53.954;9.506;2024-02-26T04:38:46;100372.16;;;1.58;100.00
29315;BME280;16320;53.954;9.506;2024-02-26T04:41:16;100373.06;;;1.55;100.00
29315;BME280;16320;53.954;9.506;2024-02-26T04:43:46;100380.88;;;1.52;100.00
29315;BME280;16320;53.954;9.506;2024-02-26T04:46:15;100376.72;;;1.45;100.00
29315;BME280;16320;53.954;9.506;2024-02-26T04:48:43;100383.59;;;1.46;100.00
29315;BME280;16320;53.954;9.506;2024-02-26T04:51:13;100376.78;;;1.42;100.00
29315;BME280;16320;53.954;9.506;2024-02-26T04:53:42;100382.84;;;1.39;100.00
29315;BME280;16320;53.954;9.506;2024-02-26T04:56:10;100373.44;;;1.37;100.00
29315;BME280;16320;53.954;9.506;2024-02-26T04:58:39;100384.69;;;1.34;100.00
29315;BME280;16320;53.954;9.506;2024-02-26T05:01:08;100378.66;;;1.34;100.00
29315;BME280;16320;53.954;9.506;2024-02-26T05:03:37;100383.84;;;1.34;100.00
29315;BME280;16320;53.954;9.506;2024-02-26T05:06:06;100386.50;;;1.29;100.00
29315;BME280;16320;53.954;9.506;2024-02-26T05:08:34;100387.34;;;1.30;100.00
29315;BME280;16320;53.954;9.506;2024-02-26T05:11:04;100394.25;;;1.31;100.00
29315;BME280;16320;53.954;9.506;2024-02-26T05:13:33;100399.47;;;1.27;100.00
29315;BME280;16320;53.954;9.506;2024-02-26T05:16:01;100402.09;;;1.26;100.00
29315;BME280;16320;53.954;9.506;2024-02-26T05:18:29;100406.41;;;1.25;100.00
29315;BME280;16320;53.954;9.506;2024-02-26T05:20:58;100410.75;;;1.23;100.00
29315;BME280;16320;53.954;9.506;2024-02-26T05:23:27;100418.47;;;1.26;100.00
29315;BME280;16320;53.954;9.506;2024-02-26T05:25:55;100418.47;;;1.26;100.00
29315;BME280;16320;53.954;9.506;2024-02-26T05:28:24;100423.63;;;1.26;100.00
29315;BME280;16320;53.954;9.506;2024-02-26T05:30:55;100422.75;;;1.29;100.00
29315;BME280;16320;53.954;9.506;2024-02-26T05:33:23;100435.69;;;1.27;100.00
29315;BME280;16320;53.954;9.506;2024-02-26T05:35:52;100434.84;;;1.28;100.00
29315;BME280;16320;53.954;9.506;2024-02-26T05:38:21;100441.69;;;1.30;100.00
29315;BME280;16320;53.954;9.506;2024-02-26T05:40:49;100434.72;;;1.33;100.00
29315;BME280;16320;53.954;9.506;2024-02-26T05:43:19;100444.06;;;1.42;100.00
29315;BME280;16320;53.954;9.506;2024-02-26T05:45:47;100444.97;;;1.39;100.00
29315;BME280;16320;53.954;9.506;2024-02-26T05:48:15;100448.47;;;1.37;100.00
29315;BME280;16320;53.954;9.506;2024-02-26T05:50:51;100444.19;;;1.36;100.00
29315;BME280;16320;53.954;9.506;2024-02-26T05:53:19;100450.19;;;1.36;100.00
29315;BME280;16320;53.954;9.506;2024-02-26T05:55:47;100451.13;;;1.34;100.00
29315;BME280;16320;53.954;9.506;2024-02-26T05:58:16;100459.75;;;1.33;100.00
29315;BME280;16320;53.954;9.506;2024-02-26T06:00:45;100466.66;;;1.34;100.00
29315;BME280;16320;53.954;9.506;2024-02-26T06:03:14;100471.84;;;1.32;100.00
29315;BME280;16320;53.954;9.506;2024-02-26T06:05:44;100472.69;;;1.33;100.00
29315;BME280;16320;53.954;9.506;2024-02-26T06:08:13;100475.22;;;1.36;100.00
29315;BME280;16320;53.954;9.506;2024-02-26T06:10:42;100478.69;;;1.35;100.00
29315;BME280;16320;53.954;9.506;2024-02-26T06:13:10;100478.78;;;1.32;100.00
29315;BME280;16320;53.954;9.506;2024-02-26T06:15:39;100487.41;;;1.31;100.00
29315;BME280;16320;53.954;9.506;2024-02-26T06:18:07;100489.22;;;1.25;100.00
29315;BME280;16320;53.954;9.506;2024-02-26T06:20:35;100489.25;;;1.22;100.00
29315;BME280;16320;53.954;9.506;2024-02-26T06:23:04;100492.66;;;1.24;100.00
29315;BME280;16320;53.954;9.506;2024-02-26T06:25:33;100493.53;;;1.25;100.00
29315;BME280;16320;53.954;9.506;2024-02-26T06:28:02;100497.94;;;1.18;100.00
29315;BME280;16320;53.954;9.506;2024-02-26T06:30:30;100501.44;;;1.17;100.00
29315;BME280;16320;53.954;9.506;2024-02-26T06:32:59;100496.22;;;1.19;100.00
29315;BME280;16320;53.954;9.506;2024-02-26T06:35:27;100509.16;;;1.20;100.00
29315;BME280;16320;53.954;9.506;2024-02-26T06:37:55;100504.78;;;1.22;100.00
29315;BME280;16320;53.954;9.506;2024-02-26T06:40:23;100507.34;;;1.25;100.00
29315;BME280;16320;53.954;9.506;2024-02-26T06:42:52;100513.31;;;1.27;100.00
29315;BME280;16320;53.954;9.506;2024-02-26T06:45:20;100506.25;;;1.37;100.00
29315;BME280;16320;53.954;9.506;2024-02-26T06:47:48;100518.13;;;1.49;100.00
29315;BME280;16320;53.954;9.506;2024-02-26T06:50:18;100519.78;;;1.53;100.00
29315;BME280;16320;53.954;9.506;2024-02-26T06:52:46;100522.34;;;1.55;100.00
29315;BME280;16320;53.954;9.506;2024-02-26T06:55:15;100533.44;;;1.61;100.00
29315;BME280;16320;53.954;9.506;2024-02-26T06:57:43;100536.00;;;1.63;100.00
29315;BME280;16320;53.954;9.506;2024-02-26T07:00:13;100542.03;;;1.63;100.00
29315;BME280;16320;53.954;9.506;2024-02-26T07:02:44;100534.28;;;1.63;100.00
29315;BME280;16320;53.954;9.506;2024-02-26T07:05:13;100545.50;;;1.62;100.00
29315;BME280;16320;53.954;9.506;2024-02-26T07:07:41;100551.38;;;1.72;100.00
29315;BME280;16320;53.954;9.506;2024-02-26T07:10:10;100552.25;;;1.73;100.00
29315;BME280;16320;53.954;9.506;2024-02-26T07:12:39;100555.56;;;1.79;100.00
29315;BME280;16320;53.954;9.506;2024-02-26T07:15:09;100556.34;;;1.83;100.00
29315;BME280;16320;53.954;9.506;2024-02-26T07:17:38;100566.69;;;1.85;100.00
29315;BME280;16320;53.954;9.506;2024-02-26T07:20:09;100570.03;;;1.90;100.00
29315;BME280;16320;53.954;9.506;2024-02-26T07:22:40;100564.03;;;1.89;100.00
29315;BME280;16320;53.954;9.506;2024-02-26T07:25:09;100567.47;;;1.88;100.00
29315;BME280;16320;53.954;9.506;2024-02-26T07:27:40;100568.38;;;1.89;100.00
29315;BME280;16320;53.954;9.506;2024-02-26T07:30:09;100576.94;;;1.91;100.00
29315;BME280;16320;53.954;9.506;2024-02-26T07:32:38;100565.56;;;1.98;100.00
29315;BME280;16320;53.954;9.506;2024-02-26T07:35:07;100578.31;;;2.10;100.00
29315;BME280;16320;53.954;9.506;2024-02-26T07:37:36;100589.47;;;2.14;100.00
29315;BME280;16320;53.954;9.506;2024-02-26T07:40:07;100593.75;;;2.16;100.00
29315;BME280;16320;53.954;9.506;2024-02-26T07:42:36;100598.91;;;2.18;100.00
29315;BME280;16320;53.954;9.506;2024-02-26T07:45:05;100591.19;;;2.15;100.00
29315;BME280;16320;53.954;9.506;2024-02-26T07:47:33;100591.19;;;2.15;100.00
29315;BME280;16320;53.954;9.506;2024-02-26T07:50:02;100599.09;;;2.07;100.00
29315;BME280;16320;53.954;9.506;2024-02-26T07:52:31;100591.25;;;2.12;100.00
29315;BME280;16320;53.954;9.506;2024-02-26T07:55:00;100591.25;;;2.12;100.00
29315;BME280;16320;53.954;9.506;2024-02-26T07:57:33;100593.81;;;2.13;100.00
29315;BME280;16320;53.954;9.506;2024-02-26T08:00:10;100600.00;;;2.05;100.00
29315;BME280;16320;53.954;9.506;2024-02-26T08:02:39;100593.06;;;2.07;100.00
29315;BME280;16320;53.954;9.506;2024-02-26T08:05:07;100595.53;;;2.13;100.00
29315;BME280;16320;53.954;9.506;2024-02-26T08:07:38;100603.09;;;2.24;100.00
29315;BME280;16320;53.954;9.506;2024-02-26T08:10:07;100597.13;;;2.20;100.00
29315;BME280;16320;53.954;9.506;2024-02-26T08:12:38;100598.06;;;2.16;100.00
29315;BME280;16320;53.954;9.506;2024-02-26T08:15:07;100597.06;;;2.23;100.00
29315;BME280;16320;53.954;9.506;2024-02-26T08:17:37;100599.66;;;2.23;100.00
29315;BME280;16320;53.954;9.506;2024-02-26T08:20:05;100604.84;;;2.23;100.00
29315;BME280;16320;53.954;9.506;2024-02-26T08:22:35;100608.16;;;2.30;100.00
29315;BME280;16320;53.954;9.506;2024-02-26T08:25:05;100604.59;;;2.35;100.00
29315;BME280;16320;53.954;9.506;2024-02-26T08:27:35;100614.84;;;2.42;100.00
29315;BME280;16320;53.954;9.506;2024-02-26T08:30:08;100613.00;;;2.47;100.00
29315;BME280;16320;53.954;9.506;2024-02-26T08:32:37;100617.28;;;2.51;100.00
29315;BME280;16320;53.954;9.506;2024-02-26T08:35:06;100623.22;;;2.56;100.00
29315;BME280;16320;53.954;9.506;2024-02-26T08:37:36;100624.88;;;2.60;100.00
29315;BME280;16320;53.954;9.506;2024-02-26T08:40:06;100626.38;;;2.70;100.00
29315;BME280;16320;53.954;9.506;2024-02-26T08:42:38;100628.28;;;2.62;100.00
29315;BME280;16320;53.954;9.506;2024-02-26T08:45:08;100618.84;;;2.58;100.00
29315;BME280;16320;53.954;9.506;2024-02-26T08:47:37;100623.44;;;2.44;100.00
29315;BME280;16320;53.954;9.506;2024-02-26T08:50:07;100624.97;;;2.55;100.00
29315;BME280;16320;53.954;9.506;2024-02-26T08:52:39;100624.19;;;2.50;100.00
29315;BME280;16320;53.954;9.506;2024-02-26T08:55:09;100632.06;;;2.46;100.00
29315;BME280;16320;53.954;9.506;2024-02-26T08:57:37;100619.75;;;2.57;100.00
29315;BME280;16320;53.954;9.506;2024-02-26T09:00:06;100614.63;;;2.54;100.00
29315;BME280;16320;53.954;9.506;2024-02-26T09:02:43;100613.84;;;2.49;100.00
29315;BME280;16320;53.954;9.506;2024-02-26T09:05:11;100621.75;;;2.43;100.00
29315;BME280;16320;53.954;9.506;2024-02-26T09:07:41;100629.53;;;2.43;100.00
29315;BME280;16320;53.954;9.506;2024-02-26T09:10:10;100626.16;;;2.39;100.00
29315;BME280;16320;53.954;9.506;2024-02-26T09:12:40;100625.34;;;2.35;100.00
29315;BME280;16320;53.954;9.506;2024-02-26T09:15:09;100619.59;;;2.19;100.00
29315;BME280;16320;53.954;9.506;2024-02-26T09:17:38;100620.44;;;2.20;100.00
29315;BME280;16320;53.954;9.506;2024-02-26T09:20:07;100622.16;;;2.23;100.00
29315;BME280;16320;53.954;9.506;2024-02-26T09:22:36;100622.03;;;2.27;100.00
29315;BME280;16320;53.954;9.506;2024-02-26T09:25:06;100628.22;;;2.20;100.00
29315;BME280;16320;53.954;9.506;2024-02-26T09:27:37;100625.63;;;2.20;100.00
29315;BME280;16320;53.954;9.506;2024-02-26T09:30:10;100623.81;;;2.25;100.00
29315;BME280;16320;53.954;9.506;2024-02-26T09:32:46;100631.72;;;2.17;100.00
29315;BME280;16320;53.954;9.506;2024-02-26T09:35:16;100630.81;;;2.20;100.00
29315;BME280;16320;53.954;9.506;2024-02-26T09:37:46;100636.78;;;2.24;100.00
29315;BME280;16320;53.954;9.506;2024-02-26T09:40:16;100640.09;;;2.32;100.00
29315;BME280;16320;53.954;9.506;2024-02-26T09:42:45;100643.38;;;2.40;100.00
29315;BME280;16320;53.954;9.506;2024-02-26T09:45:21;100645.34;;;2.27;100.00
29315;BME280;16320;53.954;9.506;2024-02-26T09:47:55;100639.41;;;2.22;100.00
29315;BME280;16320;53.954;9.506;2024-02-26T09:50:26;100641.88;;;2.30;100.00
29315;BME280;16320;53.954;9.506;2024-02-26T09:52:55;100639.94;;;2.40;100.00
29315;BME280;16320;53.954;9.506;2024-02-26T09:55:26;100655.22;;;2.53;100.00
29315;BME280;16320;53.954;9.506;2024-02-26T09:57:56;100660.28;;;2.60;100.00
29315;BME280;16320;53.954;9.506;2024-02-26T10:00:27;100658.56;;;2.60;100.00
29315;BME280;16320;53.954;9.506;2024-02-26T10:03:04;100654.38;;;2.53;100.00
29315;BME280;16320;53.954;9.506;2024-02-26T10:05:34;100664.59;;;2.62;100.00
29315;BME280;16320;53.954;9.506;2024-02-26T10:08:08;100666.81;;;2.79;100.00
29315;BME280;16320;53.954;9.506;2024-02-26T10:10:37;100667.69;;;2.80;100.00
29315;BME280;16320;53.954;9.506;2024-02-26T10:13:07;100669.09;;;2.96;100.00
29315;BME280;16320;53.954;9.506;2024-02-26T10:15:38;100669.75;;;3.06;100.00
29315;BME280;16320;53.954;9.506;2024-02-26T10:18:06;100655.81;;;3.08;100.00
29315;BME280;16320;53.954;9.506;2024-02-26T10:20:35;100666.91;;;3.17;100.00
29315;BME280;16320;53.954;9.506;2024-02-26T10:23:05;100676.16;;;3.30;100.00
29315;BME280;16320;53.954;9.506;2024-02-26T10:25:36;100681.13;;;3.38;100.00
29315;BME280;16320;53.954;9.506;2024-02-26T10:28:04;100674.16;;;3.41;100.00
29315;BME280;16320;53.954;9.506;2024-02-26T10:30:37;100674.78;;;3.53;100.00
29315;BME280;16320;53.954;9.506;2024-02-26T10:33:07;100672.91;;;3.58;100.00
29315;BME280;16320;53.954;9.506;2024-02-26T10:35:35;100684.75;;;3.70;100.00
29315;BME280;16320;53.954;9.506;2024-02-26T10:38:07;100682.91;;;3.73;100.00
29315;BME280;16320;53.954;9.506;2024-02-26T10:40:36;100684.50;;;3.80;100.00
29315;BME280;16320;53.954;9.506;2024-02-26T10:43:08;100688.69;;;3.86;100.00
29315;BME280;16320;53.954;9.506;2024-02-26T10:45:37;100687.50;;;3.98;100.00
29315;BME280;16320;53.954;9.506;2024-02-26T10:48:14;100690.69;;;4.09;100.00
29315;BME280;16320;53.954;9.506;2024-02-26T10:50:44;100698.22;;;4.20;100.00
29315;BME280;16320;53.954;9.506;2024-02-26T10:53:20;100690.75;;;4.42;100.00
29315;BME280;16320;53.954;9.506;2024-02-26T10:55:57;100701.00;;;4.47;100.00
29315;BME280;16320;53.954;9.506;2024-02-26T10:58:27;100701.72;;;4.53;100.00
29315;BME280;16320;53.954;9.506;2024-02-26T11:00:57;100706.63;;;4.63;100.00
29315;BME280;16320;53.954;9.506;2024-02-26T11:03:27;100708.16;;;4.71;100.00
29315;BME280;16320;53.954;9.506;2024-02-26T11:06:02;100694.09;;;4.77;100.00
29315;BME280;16320;53.954;9.506;2024-02-26T11:08:33;100707.91;;;4.79;100.00
29315;BME280;16320;53.954;9.506;2024-02-26T11:11:03;100710.91;;;4.97;100.00
29315;BME280;16320;53.954;9.506;2024-02-26T11:13:33;100714.31;;;4.99;100.00
29315;BME280;16320;53.954;9.506;2024-02-26T11:16:06;100710.56;;;5.09;100.00
29315;BME280;16320;53.954;9.506;2024-02-26T11:18:38;100698.88;;;5.22;100.00
29315;BME280;16320;53.954;9.506;2024-02-26T11:21:11;100704.00;;;5.25;100.00
29315;BME280;16320;53.954;9.506;2024-02-26T11:23:44;100712.44;;;5.34;100.00
29315;BME280;16320;53.954;9.506;2024-02-26T11:26:16;100700.72;;;5.47;100.00
29315;BME280;16320;53.954;9.506;2024-02-26T11:28:45;100705.63;;;5.58;100.00
29315;BME280;16320;53.954;9.506;2024-02-26T11:31:15;100710.66;;;5.64;100.00
29315;BME280;16320;53.954;9.506;2024-02-26T11:33:46;100707.13;;;5.65;100.00
29315;BME280;16320;53.954;9.506;2024-02-26T11:36:17;100699.41;;;5.62;100.00
29315;BME280;16320;53.954;9.506;2024-02-26T11:38:47;100701.97;;;5.63;100.00
29315;BME280;16320;53.954;9.506;2024-02-26T11:41:20;100705.00;;;5.49;100.00
29315;BME280;16320;53.954;9.506;2024-02-26T11:44:06;100705.56;;;5.59;100.00
29315;BME280;16320;53.954;9.506;2024-02-26T11:46:43;100694.13;;;5.63;100.00
29315;BME280;16320;53.954;9.506;2024-02-26T11:49:30;100701.88;;;5.66;100.00
29315;BME280;16320;53.954;9.506;2024-02-26T11:51:59;100703.59;;;5.67;100.00
29315;BME280;16320;53.954;9.506;2024-02-26T11:54:47;100714.09;;;5.64;100.00
29315;BME280;16320;53.954;9.506;2024-02-26T12:00:02;100715.44;;;5.49;100.00
29315;BME280;16320;53.954;9.506;2024-02-26T12:02:45;100721.31;;;5.56;100.00
29315;BME280;16320;53.954;9.506;2024-02-26T12:05:21;100722.72;;;5.66;100.00
29315;BME280;16320;53.954;9.506;2024-02-26T12:08:07;100726.69;;;5.50;100.00
29315;BME280;16320;53.954;9.506;2024-02-26T12:10:38;100728.09;;;5.60;100.00
29315;BME280;16320;53.954;9.506;2024-02-26T12:13:10;100739.13;;;5.68;100.00
29315;BME280;16320;53.954;9.506;2024-02-26T12:15:56;100731.22;;;5.72;100.00
29315;BME280;16320;53.954;9.506;2024-02-26T12:18:29;100732.66;;;5.82;100.00
29315;BME280;16320;53.954;9.506;2024-02-26T12:21:02;100737.06;;;5.80;100.00
29315;BME280;16320;53.954;9.506;2024-02-26T12:23:31;100733.28;;;5.90;100.00
29315;BME280;16320;53.954;9.506;2024-02-26T12:26:00;100744.59;;;5.89;100.00
29315;BME280;16320;53.954;9.506;2024-02-26T12:28:33;100752.50;;;5.86;100.00
29315;BME280;16320;53.954;9.506;2024-02-26T12:31:04;100747.28;;;5.86;100.00
29315;BME280;16320;53.954;9.506;2024-02-26T12:33:33;100742.22;;;5.81;100.00
29315;BME280;16320;53.954;9.506;2024-02-26T12:36:04;100748.31;;;5.82;100.00
29315;BME280;16320;53.954;9.506;2024-02-26T12:38:32;100762.22;;;5.81;100.00
29315;BME280;16320;53.954;9.506;2024-02-26T12:41:03;100757.00;;;5.81;100.00
29315;BME280;16320;53.954;9.506;2024-02-26T12:43:32;100752.00;;;5.75;100.00
29315;BME280;16320;53.954;9.506;2024-02-26T12:46:03;100746.78;;;5.75;100.00
29315;BME280;16320;53.954;9.506;2024-02-26T12:48:31;100757.09;;;5.78;100.00
29315;BME280;16320;53.954;9.506;2024-02-26T12:51:01;100763.25;;;5.77;100.00
29315;BME280;16320;53.954;9.506;2024-02-26T12:53:30;100765.84;;;5.77;100.00
29315;BME280;16320;53.954;9.506;2024-02-26T12:55:58;100765.13;;;5.72;100.00
29315;BME280;16320;53.954;9.506;2024-02-26T12:58:27;100772.09;;;5.71;100.00
29315;BME280;16320;53.954;9.506;2024-02-26T13:01:06;100779.84;;;5.73;100.00
29315;BME280;16320;53.954;9.506;2024-02-26T13:03:38;100787.91;;;5.65;100.00
29315;BME280;16320;53.954;9.506;2024-02-26T13:06:07;100789.72;;;5.63;100.00